createdAt,value
2022-12-08T00:04:23.944Z,1.60
2022-12-08T00:09:34.751Z,0.87
2022-12-08T00:14:42.386Z,0.70
2022-12-08T00:19:46.741Z,3.60
2022-12-08T00:24:49.474Z,3.40
2022-12-08T00:29:52.236Z,0.73
2022-12-08T00:34:56.424Z,0.30
2022-12-08T00:39:59.238Z,1.40
2022-12-08T00:45:02.088Z,4.60
2022-12-08T00:50:07.564Z,1.80
2022-12-08T00:55:10.436Z,0.67
2022-12-08T01:00:14.025Z,1.43
2022-12-08T01:05:18.230Z,5.37
2022-12-08T01:10:21.079Z,2.10
2022-12-08T01:15:23.990Z,0.47
2022-12-08T01:20:28.264Z,2.73
2022-12-08T01:25:31.104Z,2.10
2022-12-08T01:30:34.035Z,0.23
2022-12-08T01:35:40.400Z,2.07
2022-12-08T01:40:43.193Z,1.47
2022-12-08T01:45:46.112Z,0.40
2022-12-08T01:50:50.897Z,2.43
2022-12-08T01:55:57.549Z,0.87
2022-12-08T02:01:00.349Z,1.07
2022-12-08T02:06:05.255Z,3.23
2022-12-08T02:11:10.198Z,4.10
2022-12-08T02:16:18.455Z,0.50
2022-12-08T02:21:28.724Z,3.13
2022-12-08T02:26:58.288Z,0.87
2022-12-08T02:32:16.117Z,1.53
2022-12-08T02:37:26.319Z,2.07
2022-12-08T02:42:32.953Z,4.97
2022-12-08T02:47:35.747Z,0.80
2022-12-08T02:52:44.342Z,0.83
2022-12-08T02:58:01.801Z,0.90
2022-12-08T03:03:10.285Z,5.70
2022-12-08T03:08:18.464Z,0.73
2022-12-08T03:13:22.557Z,0.60
2022-12-08T03:18:29.145Z,1.80
2022-12-08T03:23:33.799Z,2.90
2022-12-08T03:28:36.746Z,0.33
2022-12-08T03:33:41.893Z,1.27
2022-12-08T03:38:47.027Z,0.60
2022-12-08T03:43:51.041Z,0.97
2022-12-08T03:48:53.893Z,8.50
2022-12-08T03:53:58.038Z,0.83
2022-12-08T03:59:01.305Z,4.40
2022-12-08T04:04:04.407Z,0.27
2022-12-08T04:09:08.526Z,0.77
2022-12-08T04:14:11.299Z,1.07
2022-12-08T04:19:14.991Z,1.20
2022-12-08T04:24:19.289Z,1.23
2022-12-08T04:29:22.024Z,0.67
2022-12-08T04:34:24.997Z,0.47
2022-12-08T04:39:29.166Z,0.97
2022-12-08T04:44:31.946Z,1.80
2022-12-08T04:49:34.704Z,0.67
2022-12-08T04:54:38.929Z,0.27
2022-12-08T04:59:41.779Z,0.40
2022-12-08T05:04:44.548Z,0.43
2022-12-08T05:09:48.718Z,1.70
2022-12-08T05:14:51.495Z,0.93
2022-12-08T05:19:54.443Z,0.83
2022-12-08T05:24:58.597Z,0.30
2022-12-08T05:30:01.589Z,0.97
2022-12-08T05:35:04.663Z,0.73
2022-12-08T05:40:09.863Z,0.80
2022-12-08T05:45:12.639Z,0.20
2022-12-08T05:50:15.457Z,0.30
2022-12-08T05:55:19.660Z,0.33
2022-12-08T06:00:23.109Z,0.83
2022-12-08T06:05:25.910Z,1.30
2022-12-08T06:10:30.118Z,1.17
2022-12-08T06:15:34.821Z,0.53
2022-12-08T06:20:37.644Z,2.17
2022-12-08T06:25:41.788Z,0.80
2022-12-08T06:30:44.579Z,0.90
2022-12-08T06:35:47.329Z,1.13
2022-12-08T06:40:56.063Z,1.90
2022-12-08T06:45:58.894Z,1.67
2022-12-08T06:51:07.346Z,3.67
2022-12-08T06:56:12.077Z,1.43
2022-12-08T07:01:15.100Z,0.40
2022-12-08T07:06:21.750Z,0.50
2022-12-08T07:11:25.844Z,0.60
2022-12-08T07:16:28.655Z,2.87
2022-12-08T07:21:31.510Z,2.10
2022-12-08T07:26:35.710Z,1.70
2022-12-08T07:31:38.529Z,1.67
2022-12-08T07:36:41.672Z,3.30
2022-12-08T07:41:45.834Z,6.23
2022-12-08T07:46:48.643Z,1.80
2022-12-08T07:51:51.540Z,1.10
2022-12-08T07:56:58.269Z,1.57
2022-12-08T08:02:22.762Z,0.70
2022-12-08T08:07:23.830Z,1.77
2022-12-08T08:12:32.384Z,3.30
2022-12-08T08:17:36.307Z,3.73
2022-12-08T08:22:39.215Z,2.43
2022-12-08T08:27:43.844Z,3.87
2022-12-08T08:32:46.654Z,2.67
2022-12-08T08:37:49.763Z,3.03
2022-12-08T08:42:53.975Z,1.30
2022-12-08T08:47:56.794Z,3.33
2022-12-08T08:52:59.574Z,0.60
2022-12-08T08:58:03.729Z,3.03
2022-12-08T09:03:06.543Z,0.97
2022-12-08T09:08:09.522Z,1.17
2022-12-08T09:13:13.734Z,2.20
2022-12-08T09:18:16.611Z,2.00
2022-12-08T09:23:19.364Z,3.37
2022-12-08T09:28:23.552Z,1.67
2022-12-08T09:33:26.361Z,2.53
2022-12-08T09:38:30.750Z,0.87
2022-12-08T09:43:47.089Z,1.17
2022-12-08T09:48:55.717Z,3.30
2022-12-08T09:54:01.426Z,1.60
2022-12-08T09:59:11.944Z,4.53
2022-12-08T10:04:22.217Z,4.80
2022-12-08T10:09:32.247Z,3.03
2022-12-08T10:14:43.180Z,0.93
2022-12-08T10:19:47.925Z,3.37
2022-12-08T10:25:00.282Z,1.30
2022-12-08T10:30:05.322Z,1.27
2022-12-08T10:35:10.831Z,1.53
2022-12-08T10:40:15.645Z,3.23
2022-12-08T10:45:29.245Z,2.27
2022-12-08T10:50:35.275Z,1.47
2022-12-08T10:55:42.171Z,3.93
2022-12-08T11:00:46.445Z,3.70
2022-12-08T11:05:49.284Z,4.30
2022-12-08T11:10:52.142Z,2.83
2022-12-08T11:15:57.184Z,1.40
2022-12-08T11:21:02.716Z,2.97
2022-12-08T11:26:11.692Z,1.37
2022-12-08T11:31:23.981Z,3.63
2022-12-08T11:36:27.694Z,2.07
2022-12-08T11:41:32.654Z,1.33
2022-12-08T11:46:40.321Z,3.03
2022-12-08T11:51:47.262Z,1.73
2022-12-08T11:56:51.134Z,1.37
2022-12-08T12:01:55.542Z,1.57
2022-12-08T12:07:14.260Z,1.30
2022-12-08T12:12:31.655Z,2.60
2022-12-08T12:17:44.112Z,1.13
2022-12-08T12:22:50.647Z,1.30
2022-12-08T12:27:57.872Z,7.93
2022-12-08T12:33:03.261Z,3.53
2022-12-08T12:38:28.335Z,2.60
2022-12-08T12:43:33.864Z,1.70
2022-12-08T12:48:38.457Z,1.60
2022-12-08T12:53:50.140Z,1.93
2022-12-08T12:58:54.952Z,1.53
2022-12-08T13:09:36.414Z,2.93
2022-12-08T13:14:46.794Z,2.93
2022-12-08T13:19:54.737Z,2.63
2022-12-08T13:25:37.324Z,3.17
2022-12-08T13:30:44.701Z,4.63
2022-12-08T13:36:03.256Z,2.77
2022-12-08T13:41:12.581Z,3.33
2022-12-08T13:57:11.967Z,4.93
2022-12-08T14:02:19.534Z,2.63
2022-12-08T14:07:23.952Z,1.20
2022-12-08T14:12:27.927Z,1.63
2022-12-08T14:17:30.789Z,1.73
2022-12-08T14:22:36.335Z,1.67
2022-12-08T14:27:39.430Z,2.03
2022-12-08T14:32:45.201Z,1.77
2022-12-08T14:37:51.530Z,2.33
2022-12-08T14:43:12.524Z,2.73
2022-12-08T14:48:23.069Z,8.80
2022-12-08T14:53:27.405Z,5.40
2022-12-08T14:58:31.492Z,3.37
2022-12-08T15:03:34.362Z,2.23
2022-12-08T15:08:53.817Z,2.63
2022-12-08T15:13:56.718Z,4.43
2022-12-08T15:19:05.397Z,2.30
2022-12-08T15:24:12.353Z,5.50
2022-12-08T15:29:21.191Z,3.83
2022-12-08T15:34:24.154Z,4.13
2022-12-08T15:39:51.561Z,4.53
2022-12-08T15:44:54.416Z,5.67
2022-12-08T15:49:57.207Z,8.07
2022-12-08T15:55:01.361Z,5.10
2022-12-08T16:00:06.284Z,9.50
2022-12-08T16:11:24.268Z,5.33
2022-12-08T16:16:05.358Z,4.83
2022-12-08T16:21:53.360Z,4.33
2022-12-08T16:31:55.710Z,5.00
2022-12-08T16:36:58.606Z,3.73
2022-12-08T16:42:20.368Z,4.67
2022-12-08T16:47:23.264Z,4.50
2022-12-08T16:52:26.113Z,8.07
2022-12-08T16:57:30.324Z,6.80
2022-12-08T17:02:33.223Z,5.50
2022-12-08T17:07:36.660Z,9.37
2022-12-08T17:12:40.873Z,10.53
2022-12-08T17:17:43.962Z,5.03
2022-12-08T17:22:46.904Z,7.73
2022-12-08T17:27:51.232Z,5.37
2022-12-08T17:32:54.488Z,18.73
2022-12-08T17:37:57.414Z,16.20
2022-12-08T17:43:01.623Z,8.47
2022-12-08T17:48:04.725Z,13.60
2022-12-08T17:53:07.773Z,5.33
2022-12-08T17:58:11.906Z,5.57
2022-12-08T18:03:14.794Z,5.07
2022-12-08T18:08:17.672Z,9.50
2022-12-08T18:13:21.850Z,7.73
2022-12-08T18:18:24.630Z,5.30
2022-12-08T18:23:27.520Z,10.30
2022-12-08T18:28:31.762Z,9.50
2022-12-08T18:33:34.586Z,6.27
2022-12-08T18:38:37.555Z,7.33
2022-12-08T18:43:41.795Z,7.57
2022-12-08T18:48:46.218Z,7.43
2022-12-08T18:53:49.361Z,8.97
2022-12-08T18:58:58.460Z,21.87
2022-12-08T19:09:29.456Z,6.57
2022-12-08T19:14:33.755Z,7.93
2022-12-08T19:19:37.035Z,9.27
2022-12-08T19:24:40.012Z,9.17
2022-12-08T19:29:44.169Z,7.93
2022-12-08T19:34:47.177Z,9.93
2022-12-08T19:40:07.631Z,12.73
2022-12-08T19:45:14.451Z,10.30
2022-12-08T19:50:35.719Z,15.20
2022-12-08T19:55:38.885Z,15.73
2022-12-08T20:00:43.807Z,12.60
2022-12-08T20:05:48.677Z,10.00
2022-12-08T20:10:55.963Z,12.60
2022-12-08T20:16:00.281Z,13.30
2022-12-08T20:21:03.104Z,17.00
2022-12-08T20:26:06.709Z,13.43
2022-12-08T20:31:18.303Z,15.40
2022-12-08T20:36:22.739Z,18.53
2022-12-08T20:41:25.539Z,20.33
2022-12-08T20:46:29.755Z,13.97
2022-12-08T20:51:34.087Z,15.00
2022-12-08T20:56:37.118Z,15.73
2022-12-08T21:01:41.547Z,24.33
2022-12-08T21:06:44.623Z,24.23
2022-12-08T21:11:47.527Z,24.37
2022-12-08T21:16:51.721Z,34.97
2022-12-08T21:21:56.758Z,23.10
2022-12-08T21:26:59.930Z,27.80
2022-12-08T21:32:04.234Z,27.50
2022-12-08T21:37:07.118Z,36.10
2022-12-08T21:42:32.391Z,24.57
2022-12-08T21:47:38.563Z,25.73
2022-12-08T21:52:43.006Z,28.10
2022-12-08T21:57:46.064Z,19.57
2022-12-08T22:02:50.398Z,27.70
2022-12-08T22:07:53.792Z,25.60
2022-12-08T22:12:56.831Z,31.97
2022-12-08T22:18:01.213Z,29.47
2022-12-08T22:23:04.180Z,31.53
2022-12-08T22:28:07.221Z,30.50
2022-12-08T22:33:11.604Z,22.87
2022-12-08T22:38:14.420Z,27.87
2022-12-08T22:43:17.483Z,29.60
2022-12-08T22:48:21.644Z,22.17
2022-12-08T22:53:24.447Z,18.70
2022-12-08T22:58:27.259Z,20.77
2022-12-08T23:03:31.890Z,22.70
2022-12-08T23:08:34.980Z,24.10
2022-12-08T23:13:38.283Z,24.93
2022-12-08T23:18:44.965Z,21.87
2022-12-08T23:23:48.231Z,29.47
2022-12-08T23:28:51.343Z,23.43
2022-12-08T23:33:55.603Z,26.43
2022-12-08T23:38:58.429Z,26.93
2022-12-08T23:44:01.439Z,21.40
2022-12-08T23:49:05.845Z,27.50
2022-12-08T23:54:09.288Z,20.53
2022-12-08T23:59:12.243Z,26.17
